Aeroporto :
LOGIN :

Iscrizione | Disclaimer

   EN    FR    IT 

 










Sommario :    VFR   VFR Marginale   IFR   IFR Intensivo   IFR Molto Intensivo
Visibilità : 
Base nubi : 
>= 8 km
>= 3000ft
5 / 8 km
1000 / 3000 ft
1500m / 5 km
500 / 1000 ft
800 / 1500m
200 / 500 ft
< 800m
< 200 ft
Simboli :   Temporali  Nebbia  Neve Forte  Precipitazioni Forti  Vento > 20 kt
SIGMETs :   Varie  Temporali  Ghiacco  Turbolenza  Onda orograficha  Ceneri Vulcaniche






- Altitudine del aeroporto : 1071 ft
- Codice IATA : LWO


UKLL - L'viv

ULTIMO METAR :
  • 241205Z 29008G13MPS 9999 BKN009 BKN020CB 03/02 Q1013 R31/290055 TEMPO 32013G19MPS

METARs OBSOLETI :
  • 241200Z 28008MPS 9999 BKN009 BKN020CB 03/03 Q1013 R31/290055 TEMPO 32013G19MPS
  • 241148Z 29008G13MPS 9999 BKN008 BKN020CB 03/03 Q1013 R31/290055 TEMPO 32013G19MPS
  • 241130Z 29008MPS 9999 -SHRA BKN011 BKN020CB 03/02 Q1013 R31/290055 TEMPO 32013G19MPS
  • 241100Z 29007MPS 9000 -SHRA BKN011 BKN020CB 03/03 Q1012 R31/290055 TEMPO 32013G19MPS
  • 241030Z 29006MPS 8000 -SHRA BKN007 BKN016CB 03/03 Q1012 R31/290055 TEMPO 32013G19MPS
  • 241000Z 30008G13MPS 9000 -SHRA BKN011 BKN017CB 03/02 Q1012 R31/290055 TEMPO 32013G19MPS
  • 240938Z 31008MPS 270V330 7000 -SHRA BKN009 BKN015CB 03/02 Q1011 R31/290055 TEMPO 32013G19MPS
  • 240930Z 31009MPS 9000 -SHRA BKN011 BKN015CB 03/02 Q1011 R31/290055 TEMPO 32013G19MPS
  • 240917Z 31009G15MPS 280V340 9000 -SHRA SCT013CB BKN013 03/01 Q1011 R31/290055 TEMPO 32013G19MPS

TAF TAF UKLL
Valido dal 24 a 12 ore il 25 a 12 ore UTC


241103Z 2412/2512 29006G12MPS 5000 BR BKN010 SCT020CB TX04/2413Z TN00/2503Z
TEMPO 2412/2415 32013G19MPS 1400 SHRASN BKN004 BKN015CB
BECMG 2415/2417 27005G10MPS
TEMPO 2417/2421 2100 -SHRA BKN007 BKN017CB
BECMG 2421/2422 21005G10MPS
TEMPO 2422/2512 23007G14MPS 1100 SHRASN BKN002 BKN015CB



MetMap, La meteo Aeronautica in un colpo d'occhio ! - Copyright ORBIFLY Dicembre 2007 - Disclaimer

ORBIFLY MET'MAP TEAM :

Programmazione e sviluppo : Alexandra Zaïnal
Concezione : Baudouin d'Aumeries
Aiuto per la programmazione : Marc-Olivier Méhu
Supporto tecnico e logistico : Manuel Goepfert
Aiuto per la traduzione : Arnaldo La Scala

Contatto : metmap@orbifly.com




FONTI E CREDITI :

   NOAA